Terminal Aerodrome Forecast
Issued by NWS

Home | Current Version | Previous Version | Text Only | Print | Product List | Glossary On
Versions: 1 2 3 4 5 6 7 8 9 10 11 12 13 14 15 16 17 18
000
FTUS45 KRIW 271741
TAFCPR
TAF
KCPR 271741Z 2718/2818 VRB06KT P6SM VCSH SCT010 OVC040
      TEMPO 2718/2720 -SHSN OVC010
     FM272000 32007KT P6SM SCT030 BKN070
     FM280200 01007KT P6SM SCT016 BKN035
     FM280800 03006KT P6SM BKN016
     FM281500 07008KT P6SM SCT016 BKN040=

USA.gov is the U.S. government's official web portal to all federal, state and local government web resources and services.